Flight Number: EUR1438 Duration: 0:45
Departure: Gatwick Airport (EGKK) at 07:00 Distance: 197 Nm
Arrival: Amsterdam Schiphol (EHAM) at 07:45 Equipment: B737

Weather Information
London / Gatwick Airport, United Kingdom (EGKK) 51-09N 000-11W 0M Aug 17, 2018 - 04:50 PM EDT / 2018.08.17 2050 UTC
Wind: from the SW (230 degrees) at 7 MPH (6 KT):0
Visibility: greater than 7 mile(s):0
Sky conditions: mostly cloudy Temperature: 62 F (17 C) Dew Point: 57 F (14 C) Relative Humidity: 82% Pressure (altimeter): 30.15 in. Hg (1021 hPa)
ob: EGKK 172050Z 23006KT 9999 BKN039 17/14 Q1021 cycle: 21
Sunrise: 04:55 Sunset: 19:14 (UTC)

Amsterdam Airport Schiphol, Netherlands (EHAM) 52-18N 004-46E -2M Aug 17, 2018 - 04:55 PM EDT / 2018.08.17 2055 UTC
Wind: from the SSW (210 degrees) at 8 MPH (7 KT):0
Visibility: greater than 7 mile(s):0 Temperature: 59 F (15 C) Dew Point: 53 F (12 C) Relative Humidity: 82% Pressure (altimeter): 30.12 in. Hg (1020 hPa)
ob: EHAM 172055Z 21007KT CAVOK 15/12 Q1020 NOSIG cycle: 21
Sunrise: 04:32 Sunset: 18:57 (UTC)

TAF:2018/08/17 18:27 TAF TAF EHAM 171709Z 1718/1824 28010KT CAVOK BECMG 1718/1721 19005KT BECMG 1808/1810 23014KT SCT020 SCT025 PROB30 TEMPO 1809/1811 7000 -RADZ BKN020 BECMG 1818/1821 21007KT

Previous Pireps for this route
Date Aircraft Flight time Fuel used Landing rate On time
2013-01-16B7370.3939000Charter
2013-07-21DHC81.1028580No
2014-02-24A32101.4692460Charter
2014-10-04B7371.0848000No
2014-10-15DHC80.5911850Yes
2015-04-15B7770.53134980Charter
2015-04-19B1900D00.51754-157Charter
2015-05-09B7770,486780-53Charter
2015-05-09B7770.4867800Charter
2015-05-25B7370.5059150No
2015-06-11DHC80.558890Yes
2015-10-09B73700.576900-322Charter
2015-12-30B73701.046566-444Yes
2016-06-12B73700.595220-100No
2016-09-14B7370-50No
2016-11-11B7771.3050000Charter
2017-02-21B7370.0028480-559No
2017-10-07DHC80.591927-143No
(pireps marked green are flown by you)

Route map